Oaklyn, New Jersey
Current Conditions -  °F | °C
As of 12:54 PM on Saturday 25 Oct 2014 (Local Time) from KPHL Reporting Station
Few Clouds Few Clouds  
Wind Chill: 67°   Ceiling: Unl
Heat Index: 67°   Visibility: 10mi
Dew Point: 43°   Wind: 13mph
Humidity: 42%   Direction: 230°SW
Pressure: 29.82"   Gusts: NA
Location:  39.9°N, 75.08°W
Report Text: KPHL 251654Z 23011KT 10SM FEW045 FEW250 19/06 A2982 RMK AO2 PRESFR SLP099 T01940061
Loading
Personal Weather Stations






























Interactive Weather Map
Tropical Storm Tracking
New forecast layout! Learn more

10-Day Weather Forecast

Advertisements
Track Severe Weather on mobile